createdAt,value
2019-04-10T00:01:29.877Z,9.15
2019-04-10T00:04:25.219Z,8.93
2019-04-10T00:07:22.121Z,8.83
2019-04-10T00:10:17.743Z,9.20
2019-04-10T00:13:14.118Z,9.93
2019-04-10T00:16:09.334Z,9.95
2019-04-10T00:19:05.044Z,9.35
2019-04-10T00:22:02.688Z,11.22
2019-04-10T00:24:57.266Z,9.80
2019-04-10T00:27:53.348Z,10.00
2019-04-10T00:30:49.352Z,10.10
2019-04-10T00:33:45.344Z,10.00
2019-04-10T00:36:41.705Z,11.08
2019-04-10T00:39:37.396Z,10.70
2019-04-10T00:42:32.909Z,10.75
2019-04-10T00:45:29.280Z,10.82
2019-04-10T00:48:25.900Z,11.45
2019-04-10T00:51:24.138Z,10.95
2019-04-10T00:54:20.219Z,11.83
2019-04-10T00:57:16.958Z,10.80
2019-04-10T01:00:13.167Z,11.12
2019-04-10T01:03:09.431Z,12.13
2019-04-10T01:06:05.944Z,11.57
2019-04-10T01:09:01.955Z,12.05
2019-04-10T01:11:57.868Z,11.57
2019-04-10T01:14:54.140Z,12.33
2019-04-10T01:17:50.680Z,12.23
2019-04-10T01:20:46.566Z,11.70
2019-04-10T01:23:42.493Z,12.47
2019-04-10T01:26:39.096Z,13.53
2019-04-10T01:29:34.299Z,14.30
2019-04-10T01:32:30.714Z,15.60
2019-04-10T01:35:26.976Z,20.43
2019-04-10T01:38:22.823Z,16.82
2019-04-10T01:41:19.477Z,16.17
2019-04-10T01:44:15.552Z,15.53
2019-04-10T01:47:11.116Z,16.30
2019-04-10T01:50:08.327Z,16.25
2019-04-10T01:53:04.281Z,16.10
2019-04-10T01:56:00.366Z,17.07
2019-04-10T01:58:57.456Z,16.97
2019-04-10T02:01:57.253Z,19.20
2019-04-10T02:04:54.203Z,20.70
2019-04-10T02:08:01.206Z,21.95
2019-04-10T02:10:48.084Z,20.27
2019-04-10T02:13:43.510Z,20.02
2019-04-10T02:16:39.131Z,26.55
2019-04-10T02:19:36.380Z,20.92
2019-04-10T02:22:32.823Z,22.10
2019-04-10T02:25:30.556Z,20.88
2019-04-10T02:28:27.037Z,21.35
2019-04-10T02:31:25.530Z,21.10
2019-04-10T02:34:23.145Z,20.82
2019-04-10T02:37:19.213Z,21.75
2019-04-10T02:40:16.930Z,23.45
2019-04-10T02:43:13.905Z,22.48
2019-04-10T02:46:08.526Z,22.62
2019-04-10T02:49:06.019Z,24.37
2019-04-10T02:52:06.676Z,21.70
2019-04-10T02:55:03.686Z,21.55
2019-04-10T02:58:06.062Z,21.60
2019-04-10T03:01:03.119Z,21.90
2019-04-10T03:03:59.616Z,23.65
2019-04-10T03:06:55.752Z,22.90
2019-04-10T03:10:07.308Z,22.90
2019-04-10T03:12:52.408Z,24.57
2019-04-10T03:15:49.838Z,25.45
2019-04-10T03:18:45.632Z,24.55
2019-04-10T03:21:41.317Z,25.65
2019-04-10T03:24:38.038Z,24.50
2019-04-10T03:27:34.410Z,24.87
2019-04-10T03:30:32.435Z,26.48
2019-04-10T03:36:40.112Z,29.25
2019-04-10T03:39:38.517Z,27.90
2019-04-10T03:42:34.797Z,25.77
2019-04-10T03:45:32.766Z,26.20
2019-04-10T03:48:29.265Z,26.65
2019-04-10T03:51:25.765Z,27.05
2019-04-10T03:54:21.542Z,27.37
2019-04-10T03:57:20.668Z,26.20
2019-04-10T04:00:18.145Z,26.97
2019-04-10T04:03:13.964Z,27.48
2019-04-10T04:06:11.151Z,27.55
2019-04-10T04:09:11.209Z,26.77
2019-04-10T04:12:04.397Z,27.32
2019-04-10T04:15:01.869Z,27.32
2019-04-10T04:17:57.620Z,25.62
2019-04-10T04:20:53.177Z,26.85
2019-04-10T04:23:49.031Z,29.00
2019-04-10T04:26:46.466Z,28.00
2019-04-10T04:29:44.156Z,27.05
2019-04-10T04:32:40.065Z,24.87
2019-04-10T04:35:38.700Z,25.08
2019-04-10T04:38:34.687Z,24.55
2019-04-10T04:41:31.649Z,26.48
2019-04-10T04:44:27.411Z,28.60
2019-04-10T04:47:23.005Z,28.17
2019-04-10T04:50:19.872Z,27.67
2019-04-10T04:53:16.234Z,27.93
2019-04-10T04:56:11.516Z,26.70
2019-04-10T04:59:07.997Z,28.38
2019-04-10T05:02:03.448Z,29.90
2019-04-10T05:05:12.050Z,29.55
2019-04-10T05:08:24.105Z,26.35
2019-04-10T05:11:22.149Z,26.52
2019-04-10T05:14:17.839Z,27.10
2019-04-10T05:17:35.057Z,26.75
2019-04-10T05:20:42.232Z,26.05
2019-04-10T05:23:30.907Z,22.40
2019-04-10T05:26:25.955Z,25.65
2019-04-10T05:29:21.669Z,23.83
2019-04-10T05:32:23.439Z,25.57
2019-04-10T05:35:25.719Z,25.05
2019-04-10T05:38:22.914Z,24.90
2019-04-10T05:41:19.677Z,28.80
2019-04-10T05:44:16.674Z,25.92
2019-04-10T05:47:13.785Z,26.77
2019-04-10T05:50:12.916Z,25.02
2019-04-10T05:53:41.343Z,23.57
2019-04-10T05:56:22.505Z,24.25
2019-04-10T05:59:28.070Z,22.70
2019-04-10T06:02:23.726Z,25.65
2019-04-10T06:05:22.262Z,23.62
2019-04-10T06:08:23.758Z,22.52
2019-04-10T06:11:21.163Z,20.37
2019-04-10T06:14:17.801Z,20.85
2019-04-10T06:17:18.336Z,22.55
2019-04-10T06:20:17.835Z,20.30
2019-04-10T06:23:19.170Z,19.92
2019-04-10T06:26:19.683Z,19.95
2019-04-10T06:29:17.592Z,18.87
2019-04-10T06:32:21.334Z,20.12
2019-04-10T06:35:35.615Z,19.52
2019-04-10T06:38:35.189Z,19.67
2019-04-10T06:41:36.879Z,19.65
2019-04-10T06:44:37.022Z,19.30
2019-04-10T06:47:38.244Z,19.37
2019-04-10T06:50:34.978Z,16.87
2019-04-10T06:53:33.199Z,18.05
2019-04-10T06:56:31.285Z,18.73
2019-04-10T06:59:32.638Z,19.80
2019-04-10T07:02:33.854Z,17.98
2019-04-10T07:05:40.799Z,17.12
2019-04-10T07:08:31.953Z,18.65
2019-04-10T07:11:31.396Z,15.35
2019-04-10T07:14:29.967Z,16.97
2019-04-10T07:17:27.104Z,16.27
2019-04-10T07:20:26.042Z,15.63
2019-04-10T07:23:26.785Z,15.72
2019-04-10T07:26:57.701Z,15.23
2019-04-10T07:29:58.806Z,15.72
2019-04-10T07:32:51.568Z,14.83
2019-04-10T07:35:48.145Z,14.58
2019-04-10T07:38:53.953Z,16.07
2019-04-10T07:41:47.955Z,15.68
2019-04-10T07:44:50.599Z,14.23
2019-04-10T07:47:44.494Z,16.35
2019-04-10T07:50:42.033Z,15.43
2019-04-10T07:53:37.946Z,16.23
2019-04-10T07:56:37.614Z,14.90
2019-04-10T07:59:35.665Z,16.05
2019-04-10T08:02:34.041Z,15.18
2019-04-10T08:05:42.259Z,15.32
2019-04-10T08:08:41.240Z,13.65
2019-04-10T08:11:38.002Z,12.53
2019-04-10T08:14:38.046Z,12.70
2019-04-10T08:17:36.729Z,13.03
2019-04-10T08:20:34.748Z,11.55
2019-04-10T08:23:30.297Z,13.22
2019-04-10T08:26:26.104Z,11.55
2019-04-10T08:29:22.238Z,11.85
2019-04-10T08:32:18.659Z,10.70
2019-04-10T08:35:15.363Z,10.85
2019-04-10T08:38:10.949Z,10.82
2019-04-10T08:41:08.687Z,11.43
2019-04-10T08:44:06.799Z,11.33
2019-04-10T08:47:06.720Z,14.13
2019-04-10T08:50:03.484Z,12.15
2019-04-10T08:52:59.971Z,9.70
2019-04-10T08:55:56.800Z,10.53
2019-04-10T08:58:57.308Z,9.65
2019-04-10T09:01:54.011Z,11.12
2019-04-10T09:04:55.243Z,10.15
2019-04-10T09:08:03.115Z,10.70
2019-04-10T09:11:00.863Z,11.20
2019-04-10T09:13:55.502Z,10.63
2019-04-10T09:16:51.087Z,10.13
2019-04-10T09:19:46.622Z,10.13
2019-04-10T09:23:07.503Z,9.58
2019-04-10T09:25:41.596Z,9.83
2019-04-10T09:28:38.345Z,9.40
2019-04-10T09:31:40.018Z,12.03
2019-04-10T09:34:38.087Z,9.30
2019-04-10T09:37:37.977Z,8.33
2019-04-10T09:43:58.272Z,9.08
2019-04-10T09:46:55.731Z,9.18
2019-04-10T09:53:55.528Z,10.05
2019-04-10T09:57:01.699Z,9.18
2019-04-10T10:00:00.995Z,9.05
2019-04-10T10:03:07.591Z,8.80
2019-04-10T10:06:07.031Z,9.23
2019-04-10T10:09:06.275Z,9.08
2019-04-10T10:12:03.148Z,9.33
2019-04-10T10:15:05.054Z,9.28
2019-04-10T10:18:06.270Z,11.38
2019-04-10T10:21:02.010Z,10.45
2019-04-10T10:24:10.638Z,9.15
2019-04-10T10:27:07.305Z,10.43
2019-04-10T10:30:03.678Z,10.53
2019-04-10T10:33:01.410Z,11.33
2019-04-10T10:36:03.257Z,9.43
2019-04-10T10:39:06.861Z,9.73
2019-04-10T10:42:03.286Z,9.53
2019-04-10T10:45:00.504Z,10.30
2019-04-10T10:47:57.605Z,11.40
2019-04-10T10:51:00.766Z,8.90
2019-04-10T10:54:02.706Z,11.08
2019-04-10T10:57:02.622Z,11.55
2019-04-10T10:59:58.550Z,11.60
2019-04-10T11:03:00.125Z,13.15
2019-04-10T11:05:59.068Z,9.90
2019-04-10T11:08:57.825Z,12.80
2019-04-10T11:11:55.880Z,12.82
2019-04-10T11:14:53.906Z,12.28
2019-04-10T11:17:50.126Z,12.60
2019-04-10T11:24:31.562Z,11.30
2019-04-10T11:27:28.076Z,10.38
2019-04-10T11:30:24.900Z,11.85
2019-04-10T11:33:20.676Z,12.65
2019-04-10T11:36:17.558Z,12.65
2019-04-10T11:39:23.383Z,11.15
2019-04-10T11:42:14.620Z,10.70
2019-04-10T11:45:16.474Z,14.03
2019-04-10T11:48:12.934Z,12.10
2019-04-10T11:51:14.200Z,11.15
2019-04-10T11:54:14.604Z,10.63
2019-04-10T11:57:09.984Z,12.25
2019-04-10T12:00:27.831Z,11.15
2019-04-10T12:03:22.680Z,12.28
2019-04-10T12:06:25.469Z,13.95
2019-04-10T12:12:29.932Z,13.35
2019-04-10T12:15:29.316Z,13.00
2019-04-10T12:18:26.868Z,14.98
2019-04-10T12:21:29.561Z,13.93
2019-04-10T12:24:28.054Z,14.15
2019-04-10T12:27:29.292Z,12.95
2019-04-10T12:30:26.991Z,16.35
2019-04-10T12:33:25.453Z,13.20
2019-04-10T12:36:23.111Z,12.13
2019-04-10T12:39:25.305Z,12.25
2019-04-10T12:42:32.352Z,13.80
2019-04-10T12:45:34.196Z,12.03
2019-04-10T12:48:30.448Z,13.62
2019-04-10T12:51:31.891Z,12.95
2019-04-10T12:54:27.979Z,12.65
2019-04-10T12:57:26.677Z,14.50
2019-04-10T13:00:27.708Z,14.25
2019-04-10T13:03:25.090Z,14.10
2019-04-10T13:06:24.127Z,16.07
2019-04-10T13:09:22.267Z,17.55
2019-04-10T13:12:20.869Z,16.20
2019-04-10T13:15:19.223Z,19.17
2019-04-10T13:18:16.324Z,17.75
2019-04-10T13:21:16.190Z,16.57
2019-04-10T13:24:15.764Z,16.60
2019-04-10T13:27:14.623Z,17.52
2019-04-10T13:30:14.601Z,17.55
2019-04-10T13:33:12.129Z,21.15
2019-04-10T13:36:08.143Z,19.25
2019-04-10T13:39:03.754Z,20.00
2019-04-10T13:42:00.954Z,20.27
2019-04-10T13:44:57.205Z,21.70
2019-04-10T13:47:52.829Z,25.27
2019-04-10T13:50:48.717Z,23.18
2019-04-10T13:53:45.839Z,27.17
2019-04-10T13:56:41.412Z,30.25
2019-04-10T13:59:39.432Z,27.15
2019-04-10T14:02:39.655Z,26.02
2019-04-10T14:05:35.412Z,26.37
2019-04-10T14:08:42.329Z,25.57
2019-04-10T14:11:27.597Z,30.30
2019-04-10T14:14:24.553Z,29.37
2019-04-10T14:17:20.230Z,31.07
2019-04-10T14:20:17.359Z,36.68
2019-04-10T14:23:18.242Z,34.80
2019-04-10T14:26:45.490Z,34.23
2019-04-10T14:29:40.773Z,31.73
2019-04-10T14:32:39.729Z,31.12
2019-04-10T14:35:35.592Z,35.40
2019-04-10T14:38:32.826Z,34.73
2019-04-10T14:41:28.048Z,53.78
2019-04-10T14:44:23.758Z,41.18
2019-04-10T14:47:19.237Z,37.63
2019-04-10T14:50:15.719Z,36.58
2019-04-10T14:53:11.745Z,34.70
2019-04-10T14:56:08.273Z,31.97
2019-04-10T14:59:04.094Z,36.75
2019-04-10T15:02:00.339Z,32.65
2019-04-10T15:04:56.084Z,29.35
2019-04-10T15:07:53.283Z,29.37
2019-04-10T15:10:49.490Z,28.80
2019-04-10T15:13:45.747Z,24.90
2019-04-10T15:16:52.522Z,28.75
2019-04-10T15:19:37.799Z,27.95
2019-04-10T15:22:33.820Z,30.02
2019-04-10T15:25:29.386Z,27.48
2019-04-10T15:28:25.559Z,29.20
2019-04-10T15:31:21.532Z,29.95
2019-04-10T15:34:18.214Z,25.17
2019-04-10T15:37:13.400Z,25.17
2019-04-10T15:40:17.701Z,24.05
2019-04-10T15:43:06.598Z,25.25
2019-04-10T15:46:04.222Z,24.00
2019-04-10T15:49:00.500Z,26.15
2019-04-10T15:51:55.969Z,25.60
2019-04-10T15:54:53.412Z,25.00
2019-04-10T15:57:52.984Z,26.17
2019-04-10T16:00:43.743Z,23.38
2019-04-10T16:03:40.742Z,21.65
2019-04-10T16:06:35.625Z,19.92
2019-04-10T16:09:43.260Z,21.50
2019-04-10T16:12:27.849Z,20.05
2019-04-10T16:15:23.675Z,20.05
2019-04-10T16:18:23.109Z,20.02
2019-04-10T16:21:18.905Z,19.10
2019-04-10T16:24:16.489Z,19.35
2019-04-10T16:27:13.954Z,18.77
2019-04-10T16:30:10.786Z,18.23
2019-04-10T16:33:07.106Z,18.57
2019-04-10T16:36:03.081Z,16.85
2019-04-10T16:39:00.795Z,17.15
2019-04-10T16:41:57.867Z,16.77
2019-04-10T16:44:53.434Z,16.27
2019-04-10T16:47:48.903Z,15.72
2019-04-10T16:50:45.675Z,15.50
2019-04-10T16:53:41.286Z,15.03
2019-04-10T16:56:37.983Z,14.20
2019-04-10T16:59:34.025Z,15.88
2019-04-10T17:02:29.477Z,15.30
2019-04-10T17:05:25.632Z,14.75
2019-04-10T17:08:21.754Z,13.85
2019-04-10T17:11:17.438Z,13.35
2019-04-10T17:14:13.367Z,13.55
2019-04-10T17:17:10.314Z,14.13
2019-04-10T17:20:06.902Z,13.00
2019-04-10T17:23:02.541Z,13.75
2019-04-10T17:25:58.377Z,12.68
2019-04-10T17:28:54.524Z,12.25
2019-04-10T17:31:50.895Z,12.95
2019-04-10T17:34:47.112Z,12.95
2019-04-10T17:37:42.813Z,12.03
2019-04-10T17:40:47.698Z,12.55
2019-04-10T17:43:35.185Z,11.43
2019-04-10T17:46:31.446Z,11.68
2019-04-10T17:49:27.669Z,11.45
2019-04-10T17:52:24.877Z,10.90
2019-04-10T17:55:20.986Z,11.65
2019-04-10T17:58:17.109Z,11.03
2019-04-10T18:01:16.650Z,10.88
2019-04-10T18:04:11.314Z,11.28
2019-04-10T18:07:07.975Z,11.70
2019-04-10T18:10:04.655Z,12.10
2019-04-10T18:13:01.030Z,11.00
2019-04-10T18:15:57.427Z,11.30
2019-04-10T18:18:55.809Z,10.80
2019-04-10T18:21:51.238Z,10.82
2019-04-10T18:24:47.497Z,11.15
2019-04-10T18:27:43.369Z,11.38
2019-04-10T18:30:40.500Z,11.40
2019-04-10T18:33:36.344Z,11.90
2019-04-10T18:36:31.953Z,11.95
2019-04-10T18:39:27.345Z,11.05
2019-04-10T18:42:24.228Z,13.62
2019-04-10T18:45:19.652Z,11.83
2019-04-10T18:48:16.642Z,11.20
2019-04-10T18:51:12.571Z,10.80
2019-04-10T18:54:08.090Z,11.90
2019-04-10T18:57:05.393Z,11.45
2019-04-10T19:36:17.497Z,10.55
2019-04-10T19:39:14.015Z,11.70
2019-04-10T19:42:09.497Z,11.30
2019-04-10T19:45:07.728Z,11.75
2019-04-10T19:48:03.163Z,12.20
2019-04-10T19:50:59.753Z,10.98
2019-04-10T19:53:55.503Z,11.80
2019-04-10T19:56:51.496Z,11.68
2019-04-10T19:59:48.066Z,10.85
2019-04-10T20:02:43.582Z,11.73
2019-04-10T20:05:39.312Z,11.53
2019-04-10T20:08:35.510Z,12.05
2019-04-10T20:11:37.370Z,11.97
2019-04-10T20:14:28.363Z,11.97
2019-04-10T20:17:24.049Z,11.55
2019-04-10T20:20:19.379Z,11.68
2019-04-10T20:23:15.938Z,12.33
2019-04-10T20:26:11.079Z,11.38
2019-04-10T20:29:06.837Z,12.58
2019-04-10T20:32:02.492Z,11.65
2019-04-10T20:34:58.546Z,11.80
2019-04-10T20:37:55.327Z,11.75
2019-04-10T20:40:50.477Z,11.80
2019-04-10T20:43:51.249Z,11.95
2019-04-10T20:46:46.884Z,11.48
2019-04-10T20:49:42.566Z,11.80
2019-04-10T20:52:40.853Z,11.45
2019-04-10T20:55:35.500Z,12.70
2019-04-10T20:58:30.816Z,12.47
2019-04-10T21:01:26.333Z,12.40
2019-04-10T21:04:23.430Z,15.53
2019-04-10T21:07:19.155Z,13.45
2019-04-10T21:10:15.028Z,12.58
2019-04-10T21:13:10.826Z,11.95
2019-04-10T21:16:07.025Z,11.68
2019-04-10T21:19:02.365Z,11.75
2019-04-10T21:21:57.724Z,10.98
2019-04-10T21:24:54.069Z,11.35
2019-04-10T21:27:51.931Z,11.50
2019-04-10T21:31:02.139Z,11.60
2019-04-10T21:34:13.943Z,11.10
2019-04-10T21:37:10.186Z,12.80
2019-04-10T21:40:06.003Z,12.98
2019-04-10T21:43:01.585Z,13.93
2019-04-10T21:45:57.472Z,15.05
2019-04-10T21:48:53.118Z,14.05
2019-04-10T21:51:49.407Z,15.72
2019-04-10T21:54:49.660Z,17.40
2019-04-10T21:57:40.464Z,19.75
2019-04-10T22:00:52.655Z,20.15
2019-04-10T22:03:56.285Z,22.10
2019-04-10T22:07:03.450Z,22.00
2019-04-10T22:10:23.899Z,24.12
2019-04-10T22:13:19.790Z,23.87
2019-04-10T22:16:15.831Z,22.45
2019-04-10T22:19:12.198Z,22.37
2019-04-10T22:22:08.309Z,22.58
2019-04-10T22:25:05.330Z,23.40
2019-04-10T22:28:00.806Z,22.95
2019-04-10T22:30:56.026Z,24.23
2019-04-10T22:33:52.410Z,23.87
2019-04-10T22:36:49.253Z,22.80
2019-04-10T22:39:44.521Z,21.23
2019-04-10T22:42:45.891Z,21.05
2019-04-10T22:45:41.486Z,20.17
2019-04-10T22:48:37.194Z,20.75
2019-04-10T22:51:33.278Z,20.08
2019-04-10T22:54:28.592Z,20.72
2019-04-10T22:57:23.696Z,19.62
2019-04-10T23:00:24.282Z,21.05
2019-04-10T23:03:20.222Z,19.85
2019-04-10T23:06:15.670Z,19.90
2019-04-10T23:09:13.871Z,19.70
2019-04-10T23:12:09.778Z,20.57
2019-04-10T23:15:04.429Z,20.52
2019-04-10T23:18:01.191Z,21.55
2019-04-10T23:20:57.147Z,21.33
2019-04-10T23:23:52.515Z,20.68
2019-04-10T23:26:47.633Z,21.30
2019-04-10T23:29:44.282Z,20.95
2019-04-10T23:32:39.578Z,20.37
2019-04-10T23:35:35.720Z,20.55
2019-04-10T23:38:31.200Z,21.27
2019-04-10T23:41:27.185Z,21.42
2019-04-10T23:44:22.912Z,22.35
2019-04-10T23:47:18.346Z,21.50
2019-04-10T23:50:15.008Z,20.88
2019-04-10T23:53:09.634Z,21.87
2019-04-10T23:56:06.262Z,20.97
2019-04-10T23:59:01.123Z,22.90
